Nearby METAR Reports

 

KSJC - San Jose, California, USA
Distance from station: NO 14km
Uppdaterad: 2020-01-23 21:53
Övervägande molnigt
Övervägande molnigt
 Vind från calm
Vind: Vindstilla
Temperatur: 16°C
Daggpunkt: 9°C
Luftfuktighet: 63%
Barometer: 1022 hPa
Clouds: Övervägande molnigt
Visibility: 14 km
Cloud details: Few Clouds 30 m
Delvis molnigt 2438 m
Övervägande molnigt 4572 m
2020/01/23 20:53 KSJC 232053Z 00000KT 9SM FEW001 SCT080 BKN150 16/09 A3018 RMK AO2 SLP218 T01610094 58023 $
KNUQ - Moffett Nas/Mtn, California, USA
Distance from station: N 14km
Uppdaterad: 2019-11-21 17:56
NOT Current

 
Barometer: 1011.2 hPa
2019/11/21 16:56 KNUQ 211656Z AUTO A2986 RMK AO2 SLP116 PWINO $
 
KPAO - Palo Alto, California, USA
Distance from station: NNV 23km
Uppdaterad: 2020-01-23 21:47
Övervägande molnigt
Övervägande molnigt
 Vind från calm
Vind: Vindstilla
Temperatur: 13°C
Daggpunkt: 9°C
Luftfuktighet: 77%
Barometer: 1022.7 hPa
Clouds: Övervägande molnigt
Visibility: 16 km
Cloud details: Delvis molnigt 2591 m
Övervägande molnigt 3658 m
2020/01/23 20:47 KPAO 232047Z 00000KT 10SM SCT085 BKN120 13/09 A3020
KRHV - San Jose/Reid, California, USA
Distance from station: ONO 19km
Uppdaterad: 2020-01-23 21:47
Övervägande molnigt
Övervägande molnigt
 Vind från calm
Vind: Vindstilla
Temperatur: 15°C
Daggpunkt: 10°C
Luftfuktighet: 72%
Barometer: 1022.4 hPa
Clouds: Övervägande molnigt
Visibility: 16 km
Cloud details: Övervägande molnigt 2743 m
Övervägande molnigt 4572 m
2020/01/23 20:47 KRHV 232047Z 00000KT 10SM BKN090 BKN150 15/10 A3019
 
KOAK - Oakland, California, USA
Distance from station: NNV 50km
Uppdaterad: 2020-01-23 21:53
Genommulet
Genommulet
 Vind från V
Vind: V 11 km/h
Temperatur: 14°C
Daggpunkt: 9°C
Luftfuktighet: 72%
Barometer: 1022.7 hPa
Clouds: Genommulet
Visibility: 16 km
Cloud details: Delvis molnigt 4267 m
Övervägande molnigt 5486 m
Genommulet 6096 m
2020/01/23 20:53 KOAK 232053Z 28006KT 10SM SCT140 BKN180 OVC200 14/09 A3020 RMK AO2 SLP225 T01390094 58018 $
KSQL - San Carlos Airpo, California, USA
Distance from station: NV 34km
Uppdaterad: 2020-01-23 20:54
NOT Current
Övervägande molnigt
Övervägande molnigt
 Vind från varies
Vind: varies 6 km/h
Temperatur: 13°C
Daggpunkt: 10°C
Luftfuktighet: 82%
Barometer: 1023.7 hPa
Clouds: Övervägande molnigt
Visibility: 14 km
Cloud details: Övervägande molnigt 5486 m
2020/01/23 19:54 KSQL 231954Z VRB03KT 9SM BKN180 13/10 A3023
 
KSFO - San Francisco, California, USA
Distance from station: NV 49km
Uppdaterad: 2020-01-23 21:56
Övervägande molnigt
Övervägande molnigt
 Vind från NO
Vind: NO 6 km/h
Temperatur: 13°C
Daggpunkt: 9°C
Luftfuktighet: 77%
Barometer: 1022 hPa
Clouds: Övervägande molnigt
Visibility: 14 km
Cloud details: Delvis molnigt 5486 m
Övervägande molnigt 6096 m
2020/01/23 20:56 KSFO 232056Z 04003KT 9SM SCT180 BKN200 13/09 A3018 RMK AO2 SLP221 T01280094 58021
KE16 - San Martin, California, USA
Distance from station: OSO 43km
Uppdaterad: 2019-11-14 10:35
NOT Current
Genommulet
Genommulet
 Vind från SO
Vind: SO 11 km/h
Temperatur: 12°C
Daggpunkt: 10°C
Luftfuktighet: 88%
Barometer: 1017.6 hPa
Clouds: Genommulet
Visibility: 16 km
Cloud details: Genommulet 427 m
2019/11/14 09:35 KE16 140935Z AUTO 13006KT 10SM OVC014 12/10 A3005 RMK AO2
 
KWVI - Watsonville, California, USA
Distance from station: SSO 44km
Uppdaterad: 2020-01-23 21:53
Klart
Klart
 Vind från SV
Vind: SV 6 km/h
Temperatur: 19°C
Daggpunkt: 10°C
Luftfuktighet: 56%
Barometer: 1021.3 hPa
Clouds: Klart
Visibility: 16 km
2020/01/23 20:53 KWVI 232053Z AUTO 22003KT 10SM CLR 19/10 A3016 RMK AO2 SLP213 T01890100 58025
KHAF - Half Moon Bay, California, USA
Distance from station: VNV 50km
Uppdaterad: 2020-01-23 22:15
Klart
Klart
 Vind från VNV
Vind: VNV 11 km/h
Temperatur: 14°C
Daggpunkt: 9°C
Luftfuktighet: 72%
Barometer: 1021.7 hPa
Clouds: Klart
Visibility: 14 km
2020/01/23 21:15 KHAF 232115Z AUTO 30006KT 9SM CLR 14/09 A3017 RMK AO2
 
KHWD - Hayward, California, USA
Distance from station: N 44km
Uppdaterad: 2020-01-23 21:54
Klart
Klart
 Vind från VSV
Vind: VSV 6 km/h
Temperatur: 13°C
Daggpunkt: 9°C
Luftfuktighet: 77%
Barometer: 1022 hPa
Clouds: Klart
Visibility: 13 km
2020/01/23 20:54 KHWD 232054Z 24003KT 8SM CLR 13/09 A3018 RMK AO2 SLP231 T01330089 58019
KLVK - Livermore, California, USA
Distance from station: NNO 51km
Uppdaterad: 2020-01-23 21:53
Klart
Klart
 Vind från ONO
Vind: ONO 15 km/h
Temperatur: 14°C
Daggpunkt: 9°C
Luftfuktighet: 72%
Barometer: 1022 hPa
Clouds: Klart
Visibility: 16 km
2020/01/23 20:53 KLVK 232053Z 07008KT 10SM CLR 14/09 A3018 RMK AO2 SLP220 T01390094 58021